Time;durP1;ratioP1;P1;durP2;ratioP2;P2;SDS_P1;SDS_P2;PMS_P1;PMS_P2;Temp;Humidity;BMP_temperature;BMP_pressure;BME280_temperature;BME280_humidity;BME280_pressure;Samples;Min_cycle;Max_cycle;Signal;HPM_P1;HPM_P2
2022/02/19 00:01:08;;;;;;;2.10;2.00;;;;;;;8.43;100.00;95821.16;4966621;28;20058;-62
2022/02/19 00:03:36;;;;;;;2.28;2.13;;;;;;;8.59;100.00;95831.88;4970249;28;20074;-61
2022/02/19 00:06:04;;;;;;;2.10;2.00;;;;;;;8.43;100.00;95832.53;4973876;28;20081;-60
2022/02/19 00:08:33;;;;;;;2.60;2.40;;;;;;;8.43;100.00;95816.75;4966495;28;20508;-61
2022/02/19 00:11:02;;;;;;;3.58;2.33;;;;;;;8.49;100.00;95815.31;4967019;28;20086;-56
2022/02/19 00:13:30;;;;;;;2.53;2.35;;;;;;;8.53;100.00;95804.41;4959815;28;20078;-61
2022/02/19 00:16:01;;;;;;;6.05;2.33;;;;;;;8.62;100.00;95818.44;4986409;28;20529;-61
2022/02/19 00:18:30;;;;;;;2.55;2.30;;;;;;;8.49;100.00;95805.63;4986725;28;20104;-59
2022/02/19 00:20:59;;;;;;;2.40;2.13;;;;;;;8.47;100.00;95818.13;4988155;28;20065;-58
2022/02/19 00:23:29;;;;;;;2.43;2.30;;;;;;;8.41;100.00;95816.06;4986886;28;20923;-59
2022/02/19 00:25:58;;;;;;;2.35;2.17;;;;;;;8.49;100.00;95812.69;4993036;28;20078;-60
2022/02/19 00:28:27;;;;;;;2.58;2.28;;;;;;;8.47;100.00;95812.88;4989748;28;20485;-57
2022/02/19 00:30:56;;;;;;;2.50;2.30;;;;;;;8.47;100.00;95833.06;4989154;28;20629;-61
2022/02/19 00:33:24;;;;;;;2.60;2.40;;;;;;;8.38;100.00;95832.13;4988549;28;20065;-60
2022/02/19 00:35:54;;;;;;;2.60;2.40;;;;;;;8.33;100.00;95829.09;4985038;28;20077;-61
2022/02/19 00:38:23;;;;;;;2.25;2.10;;;;;;;8.58;100.00;95843.34;4988957;28;20090;-61
2022/02/19 00:40:51;;;;;;;2.30;2.10;;;;;;;8.57;100.00;95862.75;4996004;28;20093;-61
2022/02/19 00:43:20;;;;;;;3.47;2.28;;;;;;;8.60;100.00;95853.72;4992289;28;20073;-60
2022/02/19 00:45:49;;;;;;;2.53;2.33;;;;;;;8.43;100.00;95819.38;4987806;28;20062;-61
2022/02/19 00:48:18;;;;;;;2.38;2.17;;;;;;;8.45;100.00;95861.25;4985537;28;20058;-59
2022/02/19 00:51:08;;;;;;;2.20;2.10;;;;;;;8.42;100.00;95856.31;4988627;28;20066;-61
2022/02/19 00:53:36;;;;;;;2.28;2.17;;;;;;;8.47;100.00;95867.22;4991218;28;20701;-59
2022/02/19 00:56:09;;;;;;;2.78;2.33;;;;;;;8.45;100.00;95875.22;4991548;28;20085;-60
2022/02/19 00:58:37;;;;;;;2.40;2.20;;;;;;;8.41;100.00;95880.94;4991039;28;20074;-60
2022/02/19 01:01:06;;;;;;;2.88;2.40;;;;;;;8.37;100.00;95884.78;4984087;28;20077;-60
2022/02/19 01:03:35;;;;;;;2.20;2.05;;;;;;;7.94;100.00;95879.13;4988952;28;20069;-61
2022/02/19 01:06:03;;;;;;;2.78;2.47;;;;;;;7.98;100.00;95880.50;4985767;28;20066;-61
2022/02/19 01:08:33;;;;;;;2.75;2.15;;;;;;;8.18;100.00;95897.00;4992200;28;20520;-61
2022/02/19 01:11:01;;;;;;;2.50;2.10;;;;;;;8.06;100.00;95898.16;4988043;28;20105;-60
2022/02/19 01:13:30;;;;;;;2.50;2.30;;;;;;;8.01;100.00;95900.38;4986916;28;20512;-60
2022/02/19 01:15:58;;;;;;;3.92;2.50;;;;;;;7.91;100.00;95882.03;4987855;28;20073;-62
2022/02/19 01:18:27;;;;;;;2.30;2.20;;;;;;;8.05;100.00;95881.59;4987394;28;20080;-60
2022/02/19 01:20:55;;;;;;;4.00;2.53;;;;;;;8.11;100.00;95888.06;4985048;28;20082;-59
2022/02/19 01:23:24;;;;;;;2.50;2.30;;;;;;;8.08;100.00;95897.03;4984547;28;20470;-61
2022/02/19 01:25:54;;;;;;;2.60;2.40;;;;;;;8.13;100.00;95901.88;4998979;28;20092;-62
2022/02/19 01:28:22;;;;;;;2.40;2.30;;;;;;;8.05;100.00;95902.59;4989696;28;20078;-62
2022/02/19 01:30:51;;;;;;;2.25;2.15;;;;;;;7.90;100.00;95918.94;4989070;28;20061;-61
2022/02/19 01:33:19;;;;;;;2.10;2.00;;;;;;;7.97;100.00;95899.03;4989264;28;20077;-60
2022/02/19 01:35:48;;;;;;;3.17;2.33;;;;;;;7.81;100.00;95920.59;4990558;28;20074;-59
2022/02/19 01:38:17;;;;;;;2.42;2.28;;;;;;;8.03;100.00;95907.16;4989188;28;20094;-61
2022/02/19 01:40:46;;;;;;;3.45;2.17;;;;;;;8.04;100.00;95902.72;4990497;28;20086;-58
2022/02/19 01:43:16;;;;;;;2.72;2.53;;;;;;;7.84;100.00;95900.16;4992944;28;20481;-62
2022/02/19 01:45:46;;;;;;;2.38;2.17;;;;;;;7.99;100.00;95899.72;4984808;28;20077;-61
2022/02/19 01:48:14;;;;;;;2.70;2.50;;;;;;;8.11;100.00;95906.44;4984858;28;20062;-61
2022/02/19 01:50:43;;;;;;;2.65;2.47;;;;;;;7.91;100.00;95884.66;4986983;28;20058;-60
2022/02/19 01:53:11;;;;;;;2.28;2.17;;;;;;;7.99;100.00;95897.09;4994726;28;20105;-58
2022/02/19 01:55:40;;;;;;;2.58;2.38;;;;;;;8.00;100.00;95899.56;4983617;28;21676;-61
2022/02/19 01:58:09;;;;;;;2.60;2.30;;;;;;;8.21;100.00;95896.72;4987942;28;20182;-61
2022/02/19 02:00:38;;;;;;;5.10;2.50;;;;;;;8.09;100.00;95893.47;4978864;28;20066;-61
2022/02/19 02:03:07;;;;;;;2.50;2.30;;;;;;;8.03;100.00;95901.91;4970335;28;20070;-61
2022/02/19 02:05:36;;;;;;;2.95;2.42;;;;;;;8.14;100.00;95900.06;4965232;28;20073;-60
2022/02/19 02:08:06;;;;;;;3.05;2.38;;;;;;;8.32;100.00;95899.16;4995043;28;20474;-61
2022/02/19 02:10:35;;;;;;;3.00;2.38;;;;;;;8.04;100.00;95906.19;4989055;28;20070;-59
2022/02/19 02:13:04;;;;;;;2.65;2.45;;;;;;;8.17;100.00;95915.56;4971095;28;20593;-60
2022/02/19 02:15:34;;;;;;;3.25;2.50;;;;;;;8.25;100.00;95910.41;4967971;28;20078;-60
2022/02/19 02:18:04;;;;;;;2.80;2.10;;;;;;;8.15;100.00;95926.19;4971768;28;20074;-58
2022/02/19 02:20:33;;;;;;;4.68;2.90;;;;;;;8.19;100.00;95917.06;4970354;28;20078;-62
2022/02/19 02:23:03;;;;;;;2.30;2.10;;;;;;;8.17;100.00;95926.06;4987138;28;20090;-58
2022/02/19 02:25:32;;;;;;;4.32;2.25;;;;;;;8.09;100.00;95924.16;4985311;28;20081;-58
2022/02/19 02:28:01;;;;;;;2.47;2.28;;;;;;;8.11;100.00;95913.50;4986400;28;20066;-59
2022/02/19 02:30:32;;;;;;;3.03;2.30;;;;;;;8.12;100.00;95931.75;4991764;28;20055;-59
2022/02/19 02:33:07;;;;;;;2.92;2.20;;;;;;;8.23;100.00;95926.31;4983966;28;20081;-61
2022/02/19 02:35:36;;;;;;;2.67;2.38;;;;;;;8.04;100.00;95928.97;4973629;28;20069;-60
2022/02/19 02:38:06;;;;;;;2.58;2.38;;;;;;;8.20;100.00;95937.09;4993034;28;20512;-61
2022/02/19 02:40:36;;;;;;;4.28;2.65;;;;;;;8.12;100.00;95952.75;4990935;28;20078;-59
2022/02/19 02:43:04;;;;;;;2.80;2.25;;;;;;;8.18;100.00;95935.59;4995141;28;20066;-61
2022/02/19 02:45:33;;;;;;;2.40;2.20;;;;;;;8.13;100.00;95935.19;4979067;28;20078;-60
2022/02/19 02:48:21;;;;;;;2.63;2.42;;;;;;;7.84;100.00;95929.03;4981341;28;20069;-60
2022/02/19 02:50:50;;;;;;;2.72;2.53;;;;;;;8.12;100.00;95931.75;4990703;28;20070;-61
2022/02/19 02:53:40;;;;;;;2.72;2.40;;;;;;;7.91;100.00;95937.16;4988724;28;20054;-59
2022/02/19 02:56:09;;;;;;;5.28;2.70;;;;;;;7.87;100.00;95943.66;4973076;28;20090;-61
2022/02/19 02:58:38;;;;;;;4.88;2.40;;;;;;;7.90;100.00;95940.75;4986683;28;20465;-61
2022/02/19 03:01:08;;;;;;;5.68;2.80;;;;;;;7.88;100.00;95949.72;4977072;28;20325;-61
2022/02/19 03:03:36;;;;;;;2.40;2.30;;;;;;;7.93;100.00;95960.66;4971732;28;20439;-62
2022/02/19 03:06:05;;;;;;;2.72;2.33;;;;;;;7.80;100.00;95964.38;4965051;28;20105;-62
2022/02/19 03:08:33;;;;;;;2.72;2.50;;;;;;;7.78;100.00;95955.84;4964023;28;20101;-60
2022/02/19 03:11:03;;;;;;;5.05;2.60;;;;;;;7.70;100.00;95953.06;4966862;28;20086;-61
2022/02/19 03:13:32;;;;;;;5.82;2.67;;;;;;;7.73;100.00;95951.97;4987496;28;20503;-59
2022/02/19 03:16:00;;;;;;;4.43;2.60;;;;;;;7.71;100.00;95967.00;4976131;28;20097;-62
2022/02/19 03:18:29;;;;;;;2.72;2.53;;;;;;;7.44;100.00;95979.06;4970602;28;20077;-57
2022/02/19 03:20:57;;;;;;;4.47;2.70;;;;;;;7.52;100.00;95973.09;4971480;28;20058;-61
2022/02/19 03:23:26;;;;;;;4.50;2.70;;;;;;;7.71;100.00;95972.25;4963643;28;20062;-60
2022/02/19 03:25:55;;;;;;;4.13;2.50;;;;;;;7.53;100.00;95980.81;4968355;28;20506;-57
2022/02/19 03:28:25;;;;;;;2.47;2.28;;;;;;;7.40;100.00;95979.44;4987364;28;20528;-61
2022/02/19 03:30:54;;;;;;;3.00;2.80;;;;;;;7.22;100.00;95981.91;4988590;28;20076;-61
2022/02/19 03:33:22;;;;;;;2.65;2.40;;;;;;;7.44;100.00;95997.41;4977701;28;20524;-62
2022/02/19 03:35:50;;;;;;;2.72;2.50;;;;;;;7.44;100.00;95992.16;4967420;28;20065;-61
2022/02/19 03:38:19;;;;;;;2.60;2.50;;;;;;;7.32;100.00;96011.59;4984381;28;20081;-60
2022/02/19 03:40:47;;;;;;;2.80;2.60;;;;;;;6.99;100.00;95973.47;4989491;28;20305;-61
2022/02/19 03:43:16;;;;;;;2.50;2.40;;;;;;;6.99;100.00;96020.66;4986444;28;20073;-61
2022/02/19 03:45:46;;;;;;;2.85;2.65;;;;;;;7.09;100.00;96022.34;4992345;28;20072;-61
2022/02/19 03:48:15;;;;;;;2.90;2.60;;;;;;;7.13;100.00;96015.03;4991653;28;20552;-61
2022/02/19 03:50:43;;;;;;;2.70;2.50;;;;;;;6.99;100.00;96028.50;4989219;28;20461;-61
2022/02/19 03:53:12;;;;;;;3.03;2.70;;;;;;;6.94;100.00;96033.31;4991336;28;20092;-61
2022/02/19 03:55:40;;;;;;;2.63;2.50;;;;;;;6.97;100.00;96033.88;4994995;28;21441;-60
2022/02/19 03:58:09;;;;;;;2.70;2.50;;;;;;;6.87;100.00;96040.88;4975420;28;20075;-61
2022/02/19 04:00:37;;;;;;;3.92;2.78;;;;;;;6.76;100.00;96043.59;4977636;28;20505;-61
2022/02/19 04:03:09;;;;;;;3.45;3.00;;;;;;;6.71;100.00;96041.38;4981526;28;20070;-61
2022/02/19 04:05:37;;;;;;;3.33;2.65;;;;;;;6.56;100.00;96051.34;4971084;28;20536;-60
2022/02/19 04:08:06;;;;;;;2.60;2.40;;;;;;;6.45;100.00;96037.50;4970931;28;20469;-61
2022/02/19 04:10:37;;;;;;;2.72;2.53;;;;;;;6.63;100.00;96049.03;4968907;28;20062;-61
2022/02/19 04:13:06;;;;;;;5.03;2.60;;;;;;;6.56;100.00;96061.00;4970425;28;20035;-62
2022/02/19 04:15:35;;;;;;;5.07;2.67;;;;;;;6.52;100.00;96068.28;4978593;28;20551;-60
2022/02/19 04:18:04;;;;;;;2.85;2.55;;;;;;;6.49;100.00;96067.72;4964829;28;20074;-61
2022/02/19 04:20:34;;;;;;;2.60;2.40;;;;;;;6.60;100.00;96067.63;4968404;28;20097;-62
2022/02/19 04:23:02;;;;;;;3.97;2.95;;;;;;;6.58;100.00;96074.81;4974454;28;20070;-61
2022/02/19 04:25:32;;;;;;;2.60;2.40;;;;;;;6.59;100.00;96084.31;4965946;28;20085;-62
2022/02/19 04:28:02;;;;;;;4.82;2.60;;;;;;;6.35;100.00;96085.41;4966521;28;20073;-61
2022/02/19 04:30:31;;;;;;;6.15;2.70;;;;;;;6.65;100.00;96092.50;4978622;28;20066;-61
2022/02/19 04:33:00;;;;;;;3.38;2.75;;;;;;;6.58;100.00;96095.75;4984478;28;20619;-62
2022/02/19 04:35:31;;;;;;;3.00;2.70;;;;;;;6.41;100.00;96105.84;4984623;28;20074;-59
2022/02/19 04:38:01;;;;;;;;;;;;;;;6.44;100.00;96104.78;4966788;28;20093;-62
2022/02/19 04:40:29;;;;;;;2.80;2.60;;;;;;;6.49;100.00;96099.97;4967857;28;20471;-62
2022/02/19 04:42:58;;;;;;;4.45;2.85;;;;;;;6.54;100.00;96103.06;4982235;28;20066;-61
2022/02/19 04:45:27;;;;;;;4.05;2.65;;;;;;;6.30;100.00;96119.03;4972515;28;20069;-62
2022/02/19 04:47:56;;;;;;;3.67;2.60;;;;;;;6.31;100.00;96107.56;4966053;28;20073;-61
2022/02/19 04:50:24;;;;;;;4.35;2.83;;;;;;;6.50;100.00;96113.91;4967170;28;20156;-60
2022/02/19 04:52:53;;;;;;;2.95;2.60;;;;;;;6.39;100.00;96120.03;4967286;28;20548;-62
2022/02/19 04:55:23;;;;;;;3.00;2.60;;;;;;;6.39;100.00;96131.34;4969854;28;20069;-62
2022/02/19 04:57:51;;;;;;;2.92;2.72;;;;;;;6.42;100.00;96123.22;4971063;28;20078;-61
2022/02/19 05:00:21;;;;;;;4.40;2.88;;;;;;;6.04;100.00;96126.38;4962377;28;20070;-61
2022/02/19 05:02:49;;;;;;;3.50;2.83;;;;;;;6.10;100.00;96120.66;4968373;28;20054;-60
2022/02/19 05:05:18;;;;;;;4.13;2.80;;;;;;;6.06;100.00;96132.34;4968581;28;20083;-62
2022/02/19 05:07:46;;;;;;;2.90;2.70;;;;;;;6.10;100.00;96118.03;4971111;28;20094;-62
2022/02/19 05:10:14;;;;;;;3.25;2.95;;;;;;;6.04;100.00;96112.47;4964264;28;20089;-61
2022/02/19 05:12:44;;;;;;;3.25;2.80;;;;;;;6.06;100.00;96115.81;4977150;28;20070;-62
2022/02/19 05:15:14;;;;;;;3.80;2.97;;;;;;;5.81;100.00;96128.19;4988225;28;20126;-62
2022/02/19 05:17:47;;;;;;;2.70;2.60;;;;;;;5.67;100.00;96129.31;4984671;28;20061;-62
2022/02/19 05:20:15;;;;;;;3.03;2.70;;;;;;;5.98;100.00;96141.75;4983653;28;20085;-62
2022/02/19 05:22:44;;;;;;;4.40;2.70;;;;;;;6.14;100.00;96143.00;4989132;28;20089;-62
2022/02/19 05:25:12;;;;;;;3.70;2.80;;;;;;;6.00;100.00;96140.66;4988554;28;20163;-61
2022/02/19 05:27:41;;;;;;;3.33;2.85;;;;;;;6.06;100.00;96149.81;4976718;28;20069;-61
2022/02/19 05:30:12;;;;;;;3.00;2.70;;;;;;;5.99;100.00;96141.63;4974283;28;20069;-61
2022/02/19 05:32:40;;;;;;;5.03;2.95;;;;;;;5.87;100.00;96137.34;4987471;28;20073;-62
2022/02/19 05:35:09;;;;;;;3.10;2.80;;;;;;;5.92;100.00;96140.44;4988633;28;20086;-61
2022/02/19 05:37:38;;;;;;;4.45;2.85;;;;;;;6.00;100.00;96147.69;4986896;28;20089;-60
2022/02/19 05:40:07;;;;;;;6.13;2.95;;;;;;;5.91;100.00;96144.00;4989629;28;20070;-61
2022/02/19 05:42:35;;;;;;;2.95;2.60;;;;;;;5.83;100.00;96149.03;4986381;28;20081;-58
2022/02/19 05:45:04;;;;;;;3.28;2.70;;;;;;;5.85;100.00;96153.19;4986994;28;20085;-61
2022/02/19 05:47:34;;;;;;;5.15;2.88;;;;;;;5.87;100.00;96146.03;4981239;28;20096;-62
2022/02/19 05:50:03;;;;;;;6.22;3.15;;;;;;;5.86;100.00;96157.47;4989738;28;20089;-60
2022/02/19 05:52:32;;;;;;;3.63;3.28;;;;;;;5.80;100.00;96141.41;4982954;28;20072;-57
2022/02/19 05:55:00;;;;;;;3.00;2.80;;;;;;;5.91;100.00;96160.53;4983689;28;20456;-60
2022/02/19 05:57:29;;;;;;;3.03;2.83;;;;;;;6.05;100.00;96174.31;4986127;28;20445;-61
2022/02/19 05:59:57;;;;;;;4.80;3.08;;;;;;;5.91;100.00;96163.13;4989230;28;20070;-59
2022/02/19 06:02:26;;;;;;;4.15;2.83;;;;;;;6.04;100.00;96163.03;4985692;28;20074;-61
2022/02/19 06:04:56;;;;;;;5.03;2.88;;;;;;;6.11;100.00;96158.13;4990630;28;20081;-61
2022/02/19 06:07:24;;;;;;;8.32;2.95;;;;;;;5.90;100.00;96171.94;4990443;28;20096;-61
2022/02/19 06:09:52;;;;;;;4.50;2.80;;;;;;;6.01;100.00;96189.44;4994271;28;20069;-61
2022/02/19 06:12:21;;;;;;;5.93;3.08;;;;;;;5.85;100.00;96186.34;4989328;28;20454;-61
2022/02/19 06:14:49;;;;;;;4.93;2.90;;;;;;;5.95;100.00;96189.91;4989652;28;20065;-61
2022/02/19 06:17:18;;;;;;;8.20;2.72;;;;;;;5.98;100.00;96188.84;4991057;28;20073;-60
2022/02/19 06:19:47;;;;;;;3.45;2.95;;;;;;;6.11;100.00;96190.38;4989541;28;20089;-62
2022/02/19 06:22:17;;;;;;;4.55;3.20;;;;;;;6.11;100.00;96190.38;4991465;28;20073;-60
2022/02/19 06:24:45;;;;;;;7.82;3.65;;;;;;;6.12;100.00;96199.03;4988968;28;20081;-59
2022/02/19 06:27:14;;;;;;;4.88;3.00;;;;;;;6.29;100.00;96195.88;4987628;28;20220;-59
2022/02/19 06:29:42;;;;;;;3.42;2.90;;;;;;;6.17;100.00;96208.19;4985612;28;20058;-60
2022/02/19 06:32:11;;;;;;;4.85;3.60;;;;;;;6.14;100.00;96174.41;4990842;28;20472;-60
2022/02/19 06:34:39;;;;;;;6.90;3.08;;;;;;;6.37;100.00;96216.25;4988709;28;20595;-58
2022/02/19 06:37:08;;;;;;;4.85;3.53;;;;;;;6.28;100.00;96206.50;4970366;28;20077;-57
2022/02/19 06:39:38;;;;;;;3.30;3.00;;;;;;;6.44;100.00;96216.56;4976594;28;20066;-61
2022/02/19 06:42:07;;;;;;;4.65;3.05;;;;;;;6.36;100.00;96225.84;4982701;28;20533;-60
2022/02/19 06:44:35;;;;;;;5.00;3.22;;;;;;;6.47;100.00;96229.38;4971579;28;20062;-60
2022/02/19 06:47:04;;;;;;;4.43;2.50;;;;;;;6.33;100.00;96233.13;4990878;28;20094;-60
2022/02/19 06:49:33;;;;;;;6.15;2.90;;;;;;;6.44;100.00;96234.91;4990051;28;20073;-60
2022/02/19 06:52:01;;;;;;;5.82;3.33;;;;;;;6.46;100.00;96238.22;4986418;28;20069;-59
2022/02/19 06:54:30;;;;;;;3.08;2.75;;;;;;;6.54;100.00;96241.88;4989467;28;20066;-60
2022/02/19 06:57:00;;;;;;;3.65;2.90;;;;;;;6.35;100.00;96254.81;4994884;28;20093;-60
2022/02/19 06:59:29;;;;;;;3.05;2.70;;;;;;;6.35;100.00;96255.63;4990986;28;20069;-61
2022/02/19 07:01:57;;;;;;;8.27;3.30;;;;;;;6.55;100.00;96250.56;4996072;28;20142;-59
2022/02/19 07:04:26;;;;;;;6.25;3.30;;;;;;;6.62;100.00;96264.84;4993293;28;20062;-61
2022/02/19 07:06:54;;;;;;;5.22;3.10;;;;;;;6.61;100.00;96271.88;4993236;28;20631;-61
2022/02/19 07:09:23;;;;;;;4.22;3.00;;;;;;;6.41;100.00;96283.94;4991499;28;20070;-60
2022/02/19 07:11:54;;;;;;;6.75;3.72;;;;;;;6.61;100.00;96279.72;4991294;28;20473;-61
2022/02/19 07:14:33;;;;;;;5.53;3.00;;;;;;;6.57;100.00;96294.03;5001175;28;20081;-59
2022/02/19 07:17:04;;;;;;;5.75;3.17;;;;;;;6.51;100.00;96286.66;4992889;28;20092;-61
2022/02/19 07:19:33;;;;;;;5.82;2.83;;;;;;;6.57;100.00;96295.81;4987450;28;20081;-61
2022/02/19 07:22:02;;;;;;;4.72;3.10;;;;;;;6.62;100.00;96284.00;4991620;28;20077;-60
2022/02/19 07:24:30;;;;;;;5.45;3.08;;;;;;;6.85;100.00;96308.34;4992048;28;20070;-60
2022/02/19 07:26:59;;;;;;;3.17;2.80;;;;;;;6.82;100.00;96300.72;4981756;28;20166;-62
2022/02/19 07:29:28;;;;;;;3.05;2.80;;;;;;;7.03;100.00;96324.34;4967939;28;20082;-61
2022/02/19 07:31:58;;;;;;;6.88;2.67;;;;;;;6.95;100.00;96303.19;4972449;28;20462;-61
2022/02/19 07:34:26;;;;;;;5.22;3.00;;;;;;;7.16;100.00;96320.69;4965764;28;20138;-61
2022/02/19 07:36:55;;;;;;;5.97;3.00;;;;;;;7.10;100.00;96306.31;4971749;28;20073;-62
2022/02/19 07:39:23;;;;;;;4.18;3.20;;;;;;;7.16;100.00;96321.56;4978032;28;20517;-60
2022/02/19 07:41:52;;;;;;;3.22;2.55;;;;;;;7.31;100.00;96330.75;4979627;28;20066;-61
2022/02/19 07:44:21;;;;;;;3.30;2.67;;;;;;;7.20;100.00;96335.25;4963280;28;20078;-60
2022/02/19 07:46:49;;;;;;;3.45;3.15;;;;;;;7.00;100.00;96323.78;4991786;28;20093;-61
2022/02/19 08:00:24;;;;;;;5.85;2.80;;;;;;;7.09;100.00;96347.44;4982337;28;20066;-60
2022/02/19 08:02:52;;;;;;;5.55;2.80;;;;;;;7.16;100.00;96360.03;4977742;28;20568;-60
2022/02/19 08:05:22;;;;;;;5.40;2.50;;;;;;;7.25;100.00;96364.53;4990939;28;20081;-61
2022/02/19 08:07:51;;;;;;;4.32;2.90;;;;;;;7.46;100.00;96375.03;4989193;28;20078;-61
2022/02/19 08:10:19;;;;;;;4.25;2.60;;;;;;;7.46;100.00;96377.66;4987605;28;20070;-60
2022/02/19 08:12:47;;;;;;;2.83;2.60;;;;;;;7.34;100.00;96367.22;4980771;28;20070;-61
2022/02/19 08:15:16;;;;;;;7.53;3.17;;;;;;;7.58;100.00;96387.97;4966821;28;20564;-59
2022/02/19 08:17:44;;;;;;;4.85;2.60;;;;;;;7.49;100.00;96380.03;4965217;28;20074;-61
2022/02/19 08:20:13;;;;;;;2.97;2.58;;;;;;;7.45;100.00;96374.22;4967555;28;20089;-61
2022/02/19 08:22:42;;;;;;;2.83;2.63;;;;;;;7.32;100.00;96369.13;4965889;28;20557;-60
2022/02/19 08:25:11;;;;;;;2.60;2.40;;;;;;;7.64;100.00;96388.41;4965437;28;20073;-58
2022/02/19 08:27:39;;;;;;;3.25;2.58;;;;;;;7.56;100.00;96383.81;4984549;28;20120;-61
2022/02/19 08:30:09;;;;;;;2.85;2.50;;;;;;;7.44;100.00;96382.22;4983420;28;20078;-61
2022/02/19 08:32:38;;;;;;;4.30;2.45;;;;;;;7.66;100.00;96389.97;4966612;28;20070;-62
2022/02/19 08:35:07;;;;;;;5.85;2.80;;;;;;;7.67;100.00;96393.41;4970039;28;20105;-61
2022/02/19 08:37:36;;;;;;;3.30;2.53;;;;;;;7.50;100.00;96392.19;4965889;28;20174;-58
2022/02/19 08:40:09;;;;;;;5.70;2.60;;;;;;;7.46;100.00;96390.78;4980114;28;20096;-61
2022/02/19 08:42:38;;;;;;;3.20;2.72;;;;;;;7.36;100.00;96385.44;4994325;28;20094;-61
2022/02/19 08:45:08;;;;;;;3.10;2.78;;;;;;;7.45;100.00;96394.38;4978543;28;20481;-61
2022/02/19 08:47:41;;;;;;;2.97;2.53;;;;;;;7.22;100.00;96401.50;4966096;28;20074;-60
2022/02/19 08:50:11;;;;;;;4.53;2.50;;;;;;;7.52;100.00;96413.91;4966539;28;20082;-61
2022/02/19 08:52:40;;;;;;;7.03;2.65;;;;;;;7.47;100.00;96389.84;4968867;28;20528;-61
2022/02/19 08:55:12;;;;;;;2.67;2.40;;;;;;;7.36;100.00;96424.81;4967678;28;20077;-61
2022/02/19 08:57:40;;;;;;;5.53;2.92;;;;;;;7.52;100.00;96411.28;4973146;28;20080;-61
2022/02/19 09:00:12;;;;;;;5.72;2.83;;;;;;;7.49;100.00;96427.25;4992374;28;20065;-59
2022/02/19 09:02:41;;;;;;;7.57;2.75;;;;;;;7.42;100.00;96412.97;4986264;28;20064;-62
2022/02/19 09:05:12;;;;;;;4.88;2.63;;;;;;;7.63;100.00;96399.88;4993853;28;20085;-61
2022/02/19 09:07:41;;;;;;;4.60;3.00;;;;;;;7.72;100.00;96420.13;4986455;28;20428;-61
2022/02/19 09:10:13;;;;;;;2.50;2.30;;;;;;;7.57;100.00;96425.69;4989388;28;20070;-61
2022/02/19 09:12:46;;;;;;;4.30;2.42;;;;;;;7.73;100.00;96440.16;4986911;28;20069;-60
2022/02/19 09:15:15;;;;;;;4.13;2.45;;;;;;;7.94;100.00;96440.16;4979654;28;20528;-61
2022/02/19 09:17:43;;;;;;;3.30;2.50;;;;;;;8.20;100.00;96441.41;4966793;28;20061;-62
2022/02/19 09:20:13;;;;;;;3.47;2.70;;;;;;;8.07;99.34;96417.97;4966521;28;20078;-61
2022/02/19 09:22:42;;;;;;;4.57;2.67;;;;;;;7.94;94.32;96434.91;4983788;28;20329;-60
2022/02/19 09:25:12;;;;;;;3.70;2.40;;;;;;;7.76;85.48;96458.28;4970228;28;20569;-62
2022/02/19 09:27:41;;;;;;;;;;;;;;;7.83;100.00;96460.25;4966824;28;20062;-62
2022/02/19 09:30:11;;;;;;;2.92;2.72;;;;;;;7.63;83.00;96455.81;4962613;28;19971;-61
2022/02/19 09:32:40;;;;;;;2.83;2.63;;;;;;;7.91;86.76;96466.66;4961687;28;20454;-59
2022/02/19 09:35:09;;;;;;;2.85;2.40;;;;;;;7.90;87.82;96452.69;4973966;28;20529;-62
2022/02/19 09:37:37;;;;;;;8.75;2.50;;;;;;;8.14;91.77;96476.06;4968287;28;20070;-61
2022/02/19 09:40:07;;;;;;;6.82;2.85;;;;;;;8.03;79.77;96453.34;4977618;28;20791;-62
2022/02/19 09:42:38;;;;;;;2.50;2.30;;;;;;;8.11;74.59;96465.81;4976984;28;20081;-61
2022/02/19 09:45:08;;;;;;;4.57;2.50;;;;;;;7.88;77.45;96459.03;4966778;28;20069;-61
2022/02/19 09:47:38;;;;;;;4.40;2.60;;;;;;;8.27;83.25;96468.00;4958163;28;20478;-61
2022/02/19 09:50:07;;;;;;;3.30;2.53;;;;;;;8.31;84.24;96470.22;4964818;28;20089;-61
2022/02/19 09:52:36;;;;;;;3.53;2.45;;;;;;;8.45;93.08;96476.97;4966010;28;20082;-63
2022/02/19 09:55:06;;;;;;;3.50;2.40;;;;;;;8.44;87.69;96475.31;4962121;28;20708;-62
2022/02/19 09:57:34;;;;;;;2.63;2.43;;;;;;;8.70;88.72;96472.22;4964680;28;20747;-62
2022/02/19 10:00:06;;;;;;;3.03;2.17;;;;;;;8.67;79.02;96477.75;4977459;28;20073;-61
2022/02/19 10:02:36;;;;;;;4.60;2.20;;;;;;;8.77;86.41;96476.84;4983184;28;20136;-63
2022/02/19 10:05:15;;;;;;;3.83;2.30;;;;;;;8.75;81.58;96493.72;4968079;28;20078;-63
2022/02/19 10:07:46;;;;;;;2.10;2.00;;;;;;;8.70;69.81;96470.41;4966923;28;20491;-60
2022/02/19 10:10:25;;;;;;;3.53;2.42;;;;;;;8.98;76.30;96487.28;4959657;28;20077;-62
2022/02/19 10:12:54;;;;;;;3.00;2.30;;;;;;;8.87;80.27;96476.84;4958788;28;20079;-60
2022/02/19 10:15:39;;;;;;;2.53;2.33;;;;;;;8.80;68.21;96489.69;4977906;28;20143;-60
2022/02/19 10:18:25;;;;;;;3.55;2.22;;;;;;;8.92;76.78;96486.97;4989089;28;20058;-61
2022/02/19 10:20:56;;;;;;;3.35;2.10;;;;;;;8.71;67.15;96508.91;4985200;28;20066;-62
2022/02/19 10:23:25;;;;;;;2.97;2.40;;;;;;;8.84;73.91;96506.03;4990627;28;20089;-62
2022/02/19 10:26:01;;;;;;;5.53;2.45;;;;;;;9.04;75.26;96499.03;4992944;28;20524;-62
2022/02/19 10:28:29;;;;;;;2.65;2.30;;;;;;;8.60;62.98;96502.88;4986087;28;20061;-62
2022/02/19 10:31:11;;;;;;;4.57;2.70;;;;;;;8.89;67.19;96501.22;4984283;28;20095;-59
2022/02/19 10:33:39;;;;;;;3.28;2.30;;;;;;;8.88;64.69;96506.59;4985211;28;20538;-61
2022/02/19 10:36:14;;;;;;;4.88;2.60;;;;;;;9.09;70.64;96498.66;4983079;28;20089;-61
2022/02/19 10:38:54;;;;;;;5.03;2.20;;;;;;;8.91;68.24;96507.19;4986821;28;20070;-61
2022/02/19 10:41:33;;;;;;;7.35;2.22;;;;;;;9.10;66.29;96509.03;4989589;28;20084;-58
2022/02/19 10:44:20;;;;;;;3.55;2.20;;;;;;;9.18;68.03;96511.81;4991273;28;20094;-59
2022/02/19 10:46:51;;;;;;;5.50;2.60;;;;;;;8.96;58.21;96512.06;4987465;28;20533;-60
2022/02/19 10:49:19;;;;;;;3.38;2.40;;;;;;;9.17;74.56;96514.59;4970457;28;20582;-60
2022/02/19 10:51:48;;;;;;;2.50;2.22;;;;;;;9.32;67.26;96507.16;4984831;28;20070;-58
2022/02/19 10:54:20;;;;;;;4.57;2.50;;;;;;;8.97;62.29;96513.69;4990818;28;20077;-61
2022/02/19 10:56:49;;;;;;;2.38;2.17;;;;;;;8.85;57.17;96514.78;4988597;28;20530;-59
2022/02/19 10:59:18;;;;;;;2.00;1.90;;;;;;;9.13;67.88;96514.03;4972604;28;20078;-60
2022/02/19 11:01:49;;;;;;;2.50;2.28;;;;;;;9.32;75.57;96515.03;4997543;28;20097;-60
2022/02/19 11:04:20;;;;;;;4.00;2.00;;;;;;;9.23;67.01;96509.63;4998260;28;20069;-60
2022/02/19 11:06:50;;;;;;;2.13;1.92;;;;;;;9.32;69.09;96504.50;4987421;28;20062;-61
2022/02/19 11:09:19;;;;;;;5.45;2.58;;;;;;;9.27;57.43;96505.75;4997263;28;20071;-59
2022/02/19 11:11:49;;;;;;;2.45;2.22;;;;;;;9.47;62.98;96504.00;4997881;28;20069;-59
2022/02/19 11:14:18;;;;;;;3.20;1.98;;;;;;;9.40;58.96;96515.22;4993921;28;20085;-60
2022/02/19 11:16:46;;;;;;;3.20;2.20;;;;;;;9.42;57.20;96503.56;4990271;28;20110;-61
2022/02/19 11:19:16;;;;;;;4.78;2.58;;;;;;;9.59;58.82;96503.88;4994592;28;20084;-60
2022/02/19 11:21:46;;;;;;;3.30;2.22;;;;;;;9.37;53.24;96508.41;4989662;28;20073;-61
2022/02/19 11:24:16;;;;;;;9.85;2.50;;;;;;;9.94;75.85;96513.84;4988214;28;20066;-61
2022/02/19 11:26:46;;;;;;;2.20;2.00;;;;;;;9.66;57.18;96507.59;4991594;28;20541;-60
2022/02/19 11:29:17;;;;;;;4.90;2.10;;;;;;;9.53;65.28;96478.91;4987687;28;20077;-60
2022/02/19 11:31:46;;;;;;;5.57;2.28;;;;;;;9.70;66.30;96496.69;4993701;28;20295;-61
2022/02/19 11:34:20;;;;;;;4.20;2.28;;;;;;;9.86;61.91;96495.28;4992184;28;20073;-58
2022/02/19 11:36:51;;;;;;;3.88;2.10;;;;;;;10.08;67.05;96497.63;4990079;28;20061;-60
2022/02/19 11:39:20;;;;;;;6.78;2.60;;;;;;;10.52;72.32;96497.16;4991717;28;20077;-61
2022/02/19 11:41:49;;;;;;;4.55;2.25;;;;;;;10.04;65.86;96492.78;4993614;28;20073;-60
2022/02/19 11:44:28;;;;;;;4.70;1.98;;;;;;;10.32;73.11;96489.28;4994726;28;20548;-60
2022/02/19 11:46:57;;;;;;;5.55;2.60;;;;;;;10.27;64.63;96493.34;4989390;28;20077;-59
2022/02/19 11:49:28;;;;;;;4.35;1.98;;;;;;;10.42;63.55;96478.72;4988059;28;20062;-60
2022/02/19 11:52:16;;;;;;;2.15;1.70;;;;;;;10.71;79.55;96480.44;4993414;28;20073;-61
2022/02/19 11:55:30;;;;;;;5.28;2.20;;;;;;;10.82;80.57;96480.25;4991386;28;20076;-61
2022/02/19 11:58:03;;;;;;;2.45;1.90;;;;;;;10.71;70.46;96491.00;4981857;28;20073;-60
2022/02/19 12:00:47;;;;;;;4.00;1.90;;;;;;;10.88;91.37;96487.59;4986640;28;20054;-60